Time;durP1;ratioP1;P1;durP2;ratioP2;P2;SDS_P1;SDS_P2;PMS_P1;PMS_P2;Temp;Humidity;BMP_temperature;BMP_pressure;BME280_temperature;BME280_humidity;BME280_pressure;Samples;Min_cycle;Max_cycle;Signal;HPM_P1;HPM_P2
2021/08/03 00:01:22;;;;;;;1.50;1.33;;;;;;;14.53;74.52;99906.28;10503255;28;20074;-87
2021/08/03 00:06:26;;;;;;;1.45;1.35;;;;;;;14.54;74.11;99900.06;10518165;28;20056;-87
2021/08/03 00:11:28;;;;;;;1.48;1.38;;;;;;;14.49;74.18;99902.09;10535569;28;20093;-87
2021/08/03 00:16:35;;;;;;;1.60;1.50;;;;;;;14.26;74.74;99896.09;10517539;28;20040;-86
2021/08/03 00:21:37;;;;;;;1.45;1.25;;;;;;;14.21;75.00;99905.16;10519026;28;20056;-87
2021/08/03 00:26:39;;;;;;;2.08;1.48;;;;;;;14.27;74.70;99903.09;10538720;28;20146;-87
2021/08/03 00:31:41;;;;;;;2.10;1.40;;;;;;;14.46;73.78;99903.03;10523893;28;20040;-86
2021/08/03 00:36:43;;;;;;;1.70;1.60;;;;;;;14.34;75.34;99901.88;10521214;28;20055;-87
2021/08/03 00:41:53;;;;;;;1.70;1.20;;;;;;;14.28;75.59;99899.53;10517565;28;20124;-88
2021/08/03 00:46:56;;;;;;;1.77;1.30;;;;;;;14.32;75.18;99905.53;10502047;28;20044;-86
2021/08/03 00:51:58;;;;;;;1.60;1.50;;;;;;;14.44;74.98;99902.28;10503137;28;20130;-87
2021/08/03 00:57:01;;;;;;;1.42;1.33;;;;;;;14.52;74.81;99907.19;10517018;28;20045;-87
2021/08/03 01:02:05;;;;;;;2.15;1.80;;;;;;;14.56;74.04;99906.97;10513253;28;20052;-87
2021/08/03 01:07:17;;;;;;;2.10;1.38;;;;;;;14.69;74.24;99901.91;10496730;28;20053;-86
2021/08/03 01:12:30;;;;;;;1.50;1.40;;;;;;;14.67;74.10;99898.50;10497653;28;20096;-87
2021/08/03 01:17:42;;;;;;;1.25;1.15;;;;;;;14.64;73.81;99901.28;10494755;28;20073;-87
2021/08/03 01:22:48;;;;;;;1.33;1.08;;;;;;;14.70;72.64;99901.00;10493747;28;20044;-86
2021/08/03 01:28:14;;;;;;;1.17;1.00;;;;;;;14.80;72.16;99899.59;10481062;28;20040;-87
2021/08/03 01:33:22;;;;;;;1.17;1.08;;;;;;;15.05;70.72;99906.25;10491284;28;20458;-88
2021/08/03 01:38:27;;;;;;;1.88;1.15;;;;;;;15.37;68.86;99901.91;10488530;28;20075;-87
2021/08/03 01:43:33;;;;;;;1.10;1.00;;;;;;;15.32;69.18;99903.97;10489895;28;20085;-87
2021/08/03 01:48:38;;;;;;;1.77;1.10;;;;;;;15.08;70.72;99914.88;10488442;28;20076;-87
2021/08/03 01:53:45;;;;;;;1.98;1.10;;;;;;;15.06;71.01;99919.41;10488479;28;20161;-86
2021/08/03 01:58:49;;;;;;;1.83;1.00;;;;;;;15.21;70.10;99917.75;10509953;28;20420;-87
2021/08/03 02:04:02;;;;;;;2.55;1.20;;;;;;;15.20;69.38;99908.09;10476017;28;20096;-86
2021/08/03 02:09:09;;;;;;;2.15;1.30;;;;;;;15.11;69.60;99909.44;10471210;28;20045;-86
2021/08/03 02:14:12;;;;;;;4.88;1.10;;;;;;;15.16;69.62;99913.66;10486949;28;20068;-87
2021/08/03 02:19:38;;;;;;;;;;;;;;;14.98;70.41;99921.59;10488330;28;20048;-86
2021/08/03 02:24:42;;;;;;;1.30;1.20;;;;;;;15.01;70.39;99920.59;10505585;28;19925;-86
2021/08/03 02:29:48;;;;;;;1.53;1.07;;;;;;;15.05;71.00;99930.06;10471295;28;20075;-86
2021/08/03 02:34:58;;;;;;;2.30;1.20;;;;;;;15.11;70.26;99930.63;10486548;28;20494;-86
2021/08/03 02:40:03;;;;;;;2.38;1.08;;;;;;;15.67;68.47;99915.34;10509737;28;20036;-86
2021/08/03 02:45:19;;;;;;;2.05;0.98;;;;;;;15.56;68.11;99915.88;10494944;28;20097;-87
2021/08/03 02:50:23;;;;;;;3.45;1.00;;;;;;;15.20;70.23;99915.19;10469904;28;20110;-87
2021/08/03 03:00:56;;;;;;;1.85;1.63;;;;;;;15.04;72.73;99905.38;10487300;28;20049;-69
2021/08/03 03:06:03;;;;;;;1.25;1.15;;;;;;;15.10;72.71;99910.38;10478461;28;20044;-69
2021/08/03 03:11:10;;;;;;;3.03;1.50;;;;;;;15.00;73.60;99916.22;10480107;28;20064;-69
2021/08/03 03:16:15;;;;;;;1.85;1.42;;;;;;;15.06;73.21;99914.13;10497583;28;20164;-69
2021/08/03 03:21:20;;;;;;;1.30;1.20;;;;;;;15.12;73.03;99928.81;10498608;28;20049;-70
2021/08/03 03:26:30;;;;;;;1.80;1.30;;;;;;;14.97;73.56;99932.28;10479141;28;20398;-68
2021/08/03 03:31:34;;;;;;;1.80;1.50;;;;;;;14.85;74.72;99931.09;10479032;28;20048;-69
2021/08/03 03:36:38;;;;;;;1.25;1.15;;;;;;;15.04;74.21;99931.00;10478482;28;20489;-69
2021/08/03 03:41:45;;;;;;;1.52;1.30;;;;;;;15.08;74.38;99933.41;10497124;28;20041;-69
2021/08/03 03:46:58;;;;;;;1.88;1.40;;;;;;;15.14;74.56;99927.81;10496671;28;20498;-69
2021/08/03 03:52:04;;;;;;;2.20;1.45;;;;;;;15.01;75.33;99929.41;10496159;28;20060;-69
2021/08/03 03:57:10;;;;;;;1.35;1.25;;;;;;;15.04;75.27;99936.31;10496347;28;20044;-69
2021/08/03 04:02:20;;;;;;;1.80;1.70;;;;;;;14.98;76.08;99941.94;10496157;28;20183;-69
2021/08/03 04:07:23;;;;;;;1.75;1.25;;;;;;;14.88;76.10;99942.41;10495548;28;20135;-69
2021/08/03 04:12:25;;;;;;;2.30;2.10;;;;;;;15.05;75.72;99941.53;10477491;28;20358;-69
2021/08/03 04:17:27;;;;;;;1.73;1.63;;;;;;;15.47;73.75;99932.25;10493643;28;20036;-68
2021/08/03 04:22:30;;;;;;;2.88;1.35;;;;;;;15.23;74.80;99936.19;10494733;28;20112;-69
2021/08/03 04:27:32;;;;;;;1.95;1.75;;;;;;;15.16;75.12;99940.13;10494566;28;20063;-69
2021/08/03 04:32:33;;;;;;;3.38;1.80;;;;;;;15.00;76.21;99932.94;10493930;28;20049;-70
2021/08/03 04:37:39;;;;;;;1.85;1.73;;;;;;;14.81;77.10;99935.69;10493777;28;20044;-70
2021/08/03 04:42:41;;;;;;;2.43;1.77;;;;;;;14.75;77.35;99937.81;10475079;28;20045;-69
2021/08/03 04:47:47;;;;;;;2.92;1.60;;;;;;;14.74;77.49;99930.78;10493271;28;20159;-69
2021/08/03 04:52:50;;;;;;;1.75;1.65;;;;;;;14.82;77.24;99925.97;10474590;28;20101;-69
2021/08/03 04:57:51;;;;;;;2.55;1.90;;;;;;;15.04;77.13;99931.88;10493209;28;20111;-69
2021/08/03 05:02:53;;;;;;;3.88;1.80;;;;;;;15.36;75.25;99937.25;10492828;28;20485;-69
2021/08/03 05:08:00;;;;;;;1.85;1.63;;;;;;;15.61;74.32;99931.50;10492737;28;20063;-69
2021/08/03 05:13:02;;;;;;;1.73;1.53;;;;;;;15.82;73.42;99935.69;10473403;28;20473;-70
2021/08/03 05:18:04;;;;;;;2.60;1.55;;;;;;;15.66;71.65;99926.84;10491239;28;20426;-70
2021/08/03 05:23:05;;;;;;;2.95;1.20;;;;;;;16.33;68.71;99932.84;10490970;28;20102;-70
2021/08/03 05:28:08;;;;;;;2.63;1.35;;;;;;;16.11;70.05;99931.44;10473065;28;20461;-70
2021/08/03 05:33:10;;;;;;;1.83;1.58;;;;;;;16.13;70.10;99923.38;10491698;28;20044;-69
2021/08/03 05:38:11;;;;;;;1.88;1.48;;;;;;;16.18;69.92;99934.56;10491382;28;20128;-69
2021/08/03 05:43:13;;;;;;;2.53;1.40;;;;;;;16.32;69.34;99932.00;10473740;28;20083;-69
2021/08/03 05:48:15;;;;;;;2.17;1.10;;;;;;;16.55;68.43;99935.13;10473281;28;20127;-69
2021/08/03 05:53:16;;;;;;;1.83;1.10;;;;;;;17.14;65.72;99933.44;10491691;28;20048;-69
2021/08/03 05:58:18;;;;;;;1.67;1.10;;;;;;;17.39;65.95;99930.97;10472762;28;20076;-69
2021/08/03 06:03:19;;;;;;;2.42;1.23;;;;;;;17.50;64.52;99924.16;10491205;28;20363;-68
2021/08/03 06:08:28;;;;;;;2.95;1.30;;;;;;;18.01;64.03;99928.00;10490595;28;20041;-69
2021/08/03 06:13:30;;;;;;;1.65;1.23;;;;;;;18.48;62.62;99924.06;10471842;28;20040;-70
2021/08/03 06:18:37;;;;;;;2.13;1.50;;;;;;;18.84;61.89;99934.06;10489977;28;20086;-69
2021/08/03 06:23:41;;;;;;;1.52;1.20;;;;;;;19.15;60.77;99929.31;10475321;28;20124;-68
2021/08/03 06:28:47;;;;;;;1.40;1.10;;;;;;;19.68;60.01;99926.56;10490046;28;20072;-70
2021/08/03 06:33:49;;;;;;;2.60;1.60;;;;;;;20.15;57.33;99931.13;10489867;28;20047;-69
2021/08/03 06:38:51;;;;;;;1.58;1.30;;;;;;;19.85;56.93;99935.06;10493289;28;20136;-68
2021/08/03 06:44:11;;;;;;;1.98;1.40;;;;;;;19.76;58.38;99929.53;10497742;28;20041;-70
2021/08/03 06:49:15;;;;;;;2.55;1.50;;;;;;;19.87;57.62;99933.13;10496979;28;20045;-69
2021/08/03 06:54:21;;;;;;;1.40;1.30;;;;;;;19.84;58.66;99924.50;10478896;28;20131;-69
2021/08/03 06:59:29;;;;;;;1.90;1.70;;;;;;;19.30;59.67;99932.72;10478809;28;20538;-69
2021/08/03 07:04:52;;;;;;;1.95;1.75;;;;;;;18.92;61.79;99933.56;10478477;28;20053;-69
2021/08/03 07:09:55;;;;;;;1.55;1.45;;;;;;;19.20;59.42;99926.34;10496324;28;20048;-69
2021/08/03 07:14:57;;;;;;;3.47;2.00;;;;;;;19.53;58.84;99926.66;10478590;28;20520;-69
2021/08/03 07:20:01;;;;;;;2.00;1.80;;;;;;;20.16;59.04;99925.69;10496102;28;20040;-69
2021/08/03 07:25:04;;;;;;;1.92;1.60;;;;;;;20.37;56.12;99928.59;10496137;28;20044;-70
2021/08/03 07:30:07;;;;;;;1.77;1.40;;;;;;;20.13;57.83;99925.91;10495781;28;20044;-70
2021/08/03 07:35:09;;;;;;;2.13;1.80;;;;;;;20.41;56.13;99927.41;10495659;28;20044;-70
2021/08/03 07:40:11;;;;;;;2.28;1.73;;;;;;;20.37;55.66;99928.59;10477198;28;20040;-68
2021/08/03 07:45:13;;;;;;;2.08;1.40;;;;;;;20.72;55.25;99919.78;10496077;28;20096;-69
2021/08/03 07:50:15;;;;;;;1.88;1.40;;;;;;;20.80;54.04;99921.88;10496135;28;20048;-69
2021/08/03 07:55:17;;;;;;;2.65;1.20;;;;;;;20.62;56.00;99918.78;10495089;28;20147;-69
2021/08/03 08:00:18;;;;;;;1.60;1.45;;;;;;;20.39;56.65;99925.78;10477134;28;20044;-70
2021/08/03 08:05:29;;;;;;;1.98;1.42;;;;;;;20.15;58.39;99928.47;10495120;28;20127;-69
2021/08/03 08:10:31;;;;;;;1.63;1.40;;;;;;;20.38;57.22;99924.09;10495034;28;20087;-70
2021/08/03 08:15:32;;;;;;;1.65;1.30;;;;;;;21.24;55.44;99925.63;10494760;28;20109;-70
2021/08/03 08:20:35;;;;;;;3.20;1.20;;;;;;;21.04;55.44;99916.47;10494547;28;20036;-69
2021/08/03 08:25:37;;;;;;;2.08;1.08;;;;;;;21.69;52.11;99915.81;10493904;28;20044;-69
2021/08/03 08:30:39;;;;;;;1.45;1.30;;;;;;;21.25;53.10;99913.94;10499727;28;20522;-68
2021/08/03 08:35:40;;;;;;;1.30;1.20;;;;;;;21.20;53.51;99903.59;10518127;28;20040;-69
2021/08/03 08:40:43;;;;;;;1.65;1.10;;;;;;;21.31;52.83;99905.47;10488987;28;20044;-71
2021/08/03 08:45:45;;;;;;;2.35;1.45;;;;;;;21.50;55.01;99900.38;10493481;28;20150;-71
2021/08/03 08:50:52;;;;;;;1.95;1.30;;;;;;;21.58;53.60;99892.59;10506210;28;20048;-71
2021/08/03 08:55:53;;;;;;;3.25;1.23;;;;;;;22.04;52.31;99899.59;10483248;23;20360;-71
2021/08/03 09:00:55;;;;;;;1.25;1.15;;;;;;;22.19;52.76;99892.19;10466678;28;20068;-71
2021/08/03 09:06:03;;;;;;;2.67;1.20;;;;;;;23.09;49.45;99886.41;10429701;28;20139;-71
2021/08/03 09:11:07;;;;;;;1.38;1.27;;;;;;;23.09;49.50;99884.56;10453122;28;20102;-71
2021/08/03 09:16:09;;;;;;;2.40;1.00;;;;;;;22.93;48.73;99892.22;10451780;28;20045;-72
2021/08/03 09:21:26;;;;;;;1.00;0.90;;;;;;;22.42;49.42;99896.47;10433456;28;20045;-72
2021/08/03 09:26:47;;;;;;;1.90;0.90;;;;;;;22.62;47.97;99892.13;10434433;28;20111;-73
2021/08/03 09:31:59;;;;;;;1.30;1.02;;;;;;;23.13;46.28;99894.06;10434347;28;20119;-74
2021/08/03 09:37:01;;;;;;;1.75;0.60;;;;;;;24.12;43.65;99883.56;10434029;28;20068;-73
2021/08/03 09:42:06;;;;;;;2.55;0.98;;;;;;;24.17;43.97;99874.13;10433958;28;20089;-72
2021/08/03 09:47:07;;;;;;;1.13;0.77;;;;;;;24.85;40.26;99870.59;10452581;28;20102;-73
2021/08/03 09:52:15;;;;;;;1.58;0.57;;;;;;;24.44;41.53;99863.69;10433958;28;20470;-74
2021/08/03 09:57:24;;;;;;;1.15;0.80;;;;;;;24.37;42.72;99864.25;10452617;28;20071;-73
2021/08/03 10:02:28;;;;;;;1.88;0.80;;;;;;;24.88;42.60;99856.84;10451514;28;20051;-74
2021/08/03 10:07:30;;;;;;;0.90;0.90;;;;;;;24.65;44.76;99862.53;10451750;28;20498;-72
2021/08/03 10:12:32;;;;;;;2.15;1.20;;;;;;;23.91;45.20;99856.84;10454613;28;20041;-73
2021/08/03 10:17:34;;;;;;;1.48;0.80;;;;;;;24.01;46.45;99851.47;10459833;28;20055;-73
2021/08/03 10:22:45;;;;;;;0.85;0.65;;;;;;;24.12;45.02;99848.66;10460102;28;20520;-72
2021/08/03 10:27:52;;;;;;;2.28;0.80;;;;;;;24.32;46.18;99839.63;10460263;28;20147;-73
2021/08/03 10:32:59;;;;;;;1.48;1.00;;;;;;;23.94;46.30;99835.06;10460383;28;20051;-73
2021/08/03 10:38:00;;;;;;;0.80;0.80;;;;;;;25.26;41.88;99828.19;10440589;28;20041;-72
2021/08/03 10:43:21;;;;;;;1.13;0.70;;;;;;;25.63;39.89;99829.00;10458300;28;20124;-73
2021/08/03 10:48:38;;;;;;;1.90;0.75;;;;;;;25.90;39.90;99817.38;10459324;28;20133;-73
2021/08/03 10:54:00;;;;;;;0.60;0.60;;;;;;;26.47;39.06;99819.75;10460079;28;20102;-73
2021/08/03 10:59:39;;;;;;;1.58;0.80;;;;;;;26.39;37.41;99817.00;10460009;28;20083;-74
2021/08/03 11:04:41;;;;;;;0.65;0.52;;;;;;;25.64;38.16;99821.78;10459177;28;20132;-73
2021/08/03 11:09:43;;;;;;;2.30;0.60;;;;;;;25.27;39.78;99817.25;10440649;28;20048;-74
2021/08/03 11:14:45;;;;;;;1.30;0.90;;;;;;;24.71;40.17;99815.44;10458896;28;20056;-74
2021/08/03 11:19:47;;;;;;;0.90;0.70;;;;;;;24.71;41.50;99811.91;10441443;28;20235;-74
2021/08/03 11:24:49;;;;;;;0.98;0.70;;;;;;;25.43;39.83;99808.56;10458744;28;20123;-74
2021/08/03 11:29:51;;;;;;;1.23;0.90;;;;;;;26.11;39.85;99797.38;10458638;28;20041;-74
2021/08/03 11:34:56;;;;;;;0.75;0.75;;;;;;;26.01;38.04;99788.53;10458261;28;20526;-73
2021/08/03 11:39:58;;;;;;;0.97;0.80;;;;;;;26.39;39.79;99781.97;10441031;28;20059;-73
2021/08/03 11:45:13;;;;;;;0.75;0.75;;;;;;;26.11;38.60;99782.03;10439777;28;20045;-74
2021/08/03 11:50:26;;;;;;;1.33;0.80;;;;;;;25.78;38.88;99785.44;10457574;28;20174;-74
2021/08/03 11:55:28;;;;;;;1.75;0.70;;;;;;;25.54;39.43;99772.50;10458000;28;20049;-74
2021/08/03 12:00:30;;;;;;;2.30;0.90;;;;;;;25.96;40.76;99761.22;10441700;28;20231;-74
2021/08/03 12:05:37;;;;;;;0.60;0.60;;;;;;;25.35;39.65;99752.78;10456397;28;20474;-73
2021/08/03 12:10:41;;;;;;;4.00;0.80;;;;;;;24.81;40.16;99753.59;10456536;28;20191;-72
2021/08/03 12:15:51;;;;;;;1.45;0.80;;;;;;;24.14;42.52;99758.91;10438697;28;20104;-74
2021/08/03 12:20:55;;;;;;;0.70;0.70;;;;;;;24.27;42.55;99758.63;10439791;28;20166;-73
2021/08/03 12:26:03;;;;;;;1.33;0.80;;;;;;;24.37;41.86;99758.63;10457237;28;20057;-73
2021/08/03 12:31:18;;;;;;;2.20;0.90;;;;;;;23.64;43.22;99748.31;10437978;28;20051;-72
2021/08/03 12:36:21;;;;;;;1.58;0.70;;;;;;;24.08;41.24;99746.06;10436633;28;20048;-72
2021/08/03 12:41:24;;;;;;;1.15;0.60;;;;;;;24.06;41.06;99742.66;10456017;28;20460;-73
2021/08/03 12:46:37;;;;;;;1.58;0.80;;;;;;;23.97;41.44;99743.50;10436399;28;20056;-73
2021/08/03 12:51:39;;;;;;;1.48;0.90;;;;;;;23.60;45.35;99748.69;10454272;28;20076;-73
2021/08/03 12:56:58;;;;;;;2.00;1.00;;;;;;;23.66;45.93;99740.94;10436399;28;20052;-73
2021/08/03 13:01:59;;;;;;;0.93;0.82;;;;;;;23.41;47.64;99744.13;10435520;28;20044;-72
2021/08/03 13:07:01;;;;;;;1.70;0.80;;;;;;;23.45;46.36;99748.22;10437133;28;20110;-72
2021/08/03 13:12:05;;;;;;;1.50;0.85;;;;;;;24.35;45.68;99741.81;10435538;28;20041;-73
2021/08/03 13:17:07;;;;;;;2.42;0.93;;;;;;;24.59;45.04;99744.03;10453822;28;20376;-74
2021/08/03 13:22:09;;;;;;;1.15;0.90;;;;;;;24.69;46.02;99730.56;10454387;28;20471;-73
2021/08/03 13:27:11;;;;;;;1.00;0.80;;;;;;;24.64;44.49;99731.84;10455949;28;20041;-72
2021/08/03 13:32:12;;;;;;;2.45;1.23;;;;;;;23.50;49.26;99727.19;10452860;28;20051;-73
2021/08/03 13:37:16;;;;;;;1.88;1.05;;;;;;;23.25;51.64;99725.88;10454255;28;20063;-72
2021/08/03 13:42:22;;;;;;;1.40;1.30;;;;;;;22.72;53.40;99722.56;10435465;28;20041;-73
2021/08/03 13:47:23;;;;;;;1.87;1.40;;;;;;;22.65;54.64;99730.28;10454913;28;20102;-72
2021/08/03 13:52:25;;;;;;;1.20;1.10;;;;;;;22.59;53.91;99738.84;10453211;28;20044;-74
2021/08/03 13:57:27;;;;;;;1.50;1.20;;;;;;;22.95;53.12;99725.94;10453458;28;20451;-74
2021/08/03 14:02:29;;;;;;;1.65;1.20;;;;;;;22.70;53.72;99727.19;10435729;28;20455;-72
2021/08/03 14:07:30;;;;;;;1.02;1.00;;;;;;;22.76;53.80;99715.94;10419916;28;20041;-73
2021/08/03 14:12:33;;;;;;;1.20;1.00;;;;;;;22.60;54.48;99711.91;10455394;28;20344;-74
2021/08/03 14:17:35;;;;;;;2.88;1.13;;;;;;;22.59;53.52;99712.91;10452786;28;20111;-74
2021/08/03 14:22:37;;;;;;;1.20;1.08;;;;;;;22.34;53.91;99707.97;10453723;28;20033;-72
2021/08/03 14:27:39;;;;;;;1.90;1.00;;;;;;;22.35;55.10;99713.19;10454065;28;20046;-73
2021/08/03 14:32:41;;;;;;;2.05;1.25;;;;;;;22.46;53.85;99709.59;10435945;28;20045;-72
2021/08/03 14:37:43;;;;;;;1.58;1.48;;;;;;;22.25;55.79;99711.44;10454944;28;20091;-74
2021/08/03 14:42:45;;;;;;;6.95;1.40;;;;;;;22.14;56.64;99715.03;10453707;28;20049;-73
2021/08/03 14:47:47;;;;;;;2.05;1.20;;;;;;;22.39;55.81;99706.56;10452949;28;20103;-73
2021/08/03 14:52:49;;;;;;;1.23;1.10;;;;;;;22.65;56.12;99698.97;10436058;28;20409;-73
2021/08/03 14:57:50;;;;;;;1.60;1.25;;;;;;;22.69;55.19;99690.66;10543244;22;20040;-69
2021/08/03 15:02:52;;;;;;;2.03;1.45;;;;;;;22.66;56.50;99692.63;10460905;28;20084;-69
2021/08/03 15:07:54;;;;;;;2.33;1.20;;;;;;;22.56;55.27;99682.84;10477337;28;20129;-70
2021/08/03 15:12:56;;;;;;;1.33;1.23;;;;;;;22.79;54.30;99678.16;10496177;28;20413;-69
2021/08/03 15:17:57;;;;;;;2.42;1.20;;;;;;;22.50;55.81;99694.09;10477287;28;20512;-69
2021/08/03 15:23:00;;;;;;;1.25;1.13;;;;;;;22.32;57.52;99680.47;10460451;28;20492;-69
2021/08/03 15:28:02;;;;;;;1.40;1.30;;;;;;;22.35;56.17;99685.56;10476914;28;20044;-70
2021/08/03 15:33:03;;;;;;;2.17;1.10;;;;;;;21.91;55.82;99690.16;10476601;28;20040;-70
2021/08/03 15:38:05;;;;;;;1.17;1.02;;;;;;;21.53;56.70;99686.19;10495366;28;20052;-70
2021/08/03 15:43:07;;;;;;;1.27;1.17;;;;;;;21.32;61.38;99699.50;10494896;28;20119;-70
2021/08/03 15:48:09;;;;;;;2.95;1.60;;;;;;;21.16;62.40;99709.69;10476673;28;20120;-73
2021/08/03 15:53:11;;;;;;;2.17;1.23;;;;;;;20.67;66.63;99700.25;10494436;28;20040;-70
2021/08/03 15:58:13;;;;;;;1.95;1.35;;;;;;;20.45;67.95;99701.06;10475226;28;20135;-71
2021/08/03 16:03:15;;;;;;;1.67;1.50;;;;;;;20.32;69.42;99690.50;10494442;28;20079;-72
2021/08/03 16:08:17;;;;;;;1.98;1.50;;;;;;;20.49;66.17;99699.88;10475536;28;20045;-71
2021/08/03 16:13:18;;;;;;;1.00;1.00;;;;;;;20.53;63.97;99700.50;10492768;28;20041;-72
2021/08/03 16:18:23;;;;;;;1.00;1.00;;;;;;;20.43;63.72;99703.03;10494044;28;20378;-72
2021/08/03 16:23:25;;;;;;;1.30;1.20;;;;;;;20.23;64.46;99709.91;10494199;28;20511;-72
2021/08/03 16:28:27;;;;;;;1.65;1.55;;;;;;;19.63;70.70;99695.75;10475264;28;20047;-71
2021/08/03 16:33:35;;;;;;;1.60;1.50;;;;;;;19.55;71.07;99686.59;10474974;28;20061;-72
2021/08/03 16:38:39;;;;;;;1.70;1.15;;;;;;;19.75;68.02;99691.34;10474862;28;20164;-73
2021/08/03 16:43:42;;;;;;;1.80;1.70;;;;;;;19.40;71.75;99688.59;10474477;28;20052;-72
2021/08/03 16:48:43;;;;;;;1.60;1.50;;;;;;;19.51;70.28;99680.63;10474587;28;20121;-73
2021/08/03 16:53:45;;;;;;;2.05;1.85;;;;;;;19.63;70.28;99701.09;10474674;28;20100;-72
2021/08/03 16:58:48;;;;;;;3.13;1.65;;;;;;;19.52;70.94;99716.13;10492135;28;20358;-70
2021/08/03 17:04:36;;;;;;;2.08;1.63;;;;;;;19.05;70.48;99745.28;10491844;28;20466;-71
2021/08/03 17:09:49;;;;;;;1.40;1.10;;;;;;;18.45;70.34;99763.72;10492293;28;20560;-71
2021/08/03 17:14:57;;;;;;;1.35;1.00;;;;;;;17.63;71.47;99758.47;10474614;28;20127;-70
2021/08/03 17:20:12;;;;;;;1.67;1.00;;;;;;;17.32;71.10;99764.94;10456910;28;20051;-70
2021/08/03 17:25:16;;;;;;;1.88;0.98;;;;;;;16.99;72.88;99762.59;10473132;28;20486;-71
2021/08/03 17:30:18;;;;;;;1.80;0.98;;;;;;;16.74;71.96;99770.38;10491256;28;20044;-70
2021/08/03 17:35:20;;;;;;;1.63;0.98;;;;;;;16.28;75.71;99779.28;10491406;28;20041;-70
2021/08/03 17:40:21;;;;;;;2.10;1.10;;;;;;;16.25;76.68;99802.50;10491121;28;20135;-70
2021/08/03 17:45:23;;;;;;;2.00;0.90;;;;;;;15.86;77.18;99815.31;10491307;28;20052;-71
2021/08/03 17:50:27;;;;;;;1.38;0.90;;;;;;;16.41;75.43;99832.44;10473999;28;20045;-70
2021/08/03 17:55:30;;;;;;;2.33;1.27;;;;;;;16.51;76.99;99819.50;10491223;28;20139;-71
2021/08/03 18:00:32;;;;;;;2.10;0.90;;;;;;;16.32;77.06;99815.28;10471668;28;20139;-70
2021/08/03 18:05:35;;;;;;;2.67;0.90;;;;;;;16.29;75.91;99809.28;10490564;28;20044;-69
2021/08/03 18:10:37;;;;;;;8.18;1.30;;;;;;;16.30;76.26;99793.31;10490699;28;20053;-72
2021/08/03 18:15:39;;;;;;;2.53;1.55;;;;;;;16.40;76.69;99805.06;10472837;28;20048;-71
2021/08/03 18:20:42;;;;;;;2.03;1.15;;;;;;;16.23;78.53;99801.72;10491105;28;20132;-71
2021/08/03 18:25:51;;;;;;;2.10;1.00;;;;;;;16.32;78.02;99791.41;10490442;28;20048;-70
2021/08/03 18:31:10;;;;;;;1.73;1.15;;;;;;;16.45;76.31;99790.69;10472185;28;20149;-70
2021/08/03 18:36:15;;;;;;;4.25;1.25;;;;;;;16.14;77.52;99795.16;10495957;28;20044;-70
2021/08/03 18:41:18;;;;;;;1.65;1.20;;;;;;;16.25;76.39;99795.38;10479281;28;20572;-69
2021/08/03 18:46:27;;;;;;;2.60;1.80;;;;;;;16.31;74.13;99804.75;10480014;28;20123;-70
2021/08/03 18:51:30;;;;;;;1.50;1.05;;;;;;;16.38;74.44;99809.63;10479634;28;20033;-70
2021/08/03 18:56:33;;;;;;;3.15;1.55;;;;;;;16.09;77.39;99819.28;10497627;28;20442;-72
2021/08/03 19:01:35;;;;;;;2.65;1.38;;;;;;;16.06;77.39;99815.94;10479395;28;20154;-71
2021/08/03 19:07:01;;;;;;;4.05;1.35;;;;;;;16.05;78.23;99815.09;10497625;28;20044;-72
2021/08/03 19:12:03;;;;;;;2.20;1.38;;;;;;;15.96;78.34;99810.31;10497041;28;20097;-70
2021/08/03 19:17:05;;;;;;;2.30;1.02;;;;;;;16.04;77.70;99802.78;10479493;28;20524;-72
2021/08/03 19:22:19;;;;;;;2.28;1.35;;;;;;;16.18;76.01;99806.44;10497531;28;20040;-72
2021/08/03 19:27:23;;;;;;;2.92;1.48;;;;;;;15.97;76.65;99809.38;10478764;28;20044;-72
2021/08/03 19:32:25;;;;;;;2.05;1.13;;;;;;;16.28;75.39;99807.59;10483541;28;20033;-73
2021/08/03 19:37:27;;;;;;;2.50;1.08;;;;;;;16.19;75.98;99806.34;10486721;28;20127;-72
2021/08/03 19:42:28;;;;;;;2.03;1.13;;;;;;;16.26;75.73;99814.78;10458138;28;20115;-72
2021/08/03 19:47:45;;;;;;;2.05;1.40;;;;;;;16.18;77.15;99803.78;10445643;28;20067;-72
2021/08/03 19:52:59;;;;;;;2.28;1.30;;;;;;;16.15;76.72;99804.81;10496350;28;20142;-71
2021/08/03 19:58:10;;;;;;;2.22;1.60;;;;;;;15.87;76.74;99805.56;10497005;28;20041;-72
2021/08/03 20:03:12;;;;;;;3.30;1.40;;;;;;;15.81;76.69;99795.31;10468093;28;20446;-72
2021/08/03 20:08:15;;;;;;;2.45;1.30;;;;;;;15.76;77.52;99797.34;10481261;28;20040;-73
2021/08/03 20:13:18;;;;;;;4.40;1.80;;;;;;;15.61;77.41;99797.25;10476263;28;20051;-72
2021/08/03 20:18:21;;;;;;;2.25;1.55;;;;;;;15.94;75.41;99795.44;10495910;28;20044;-72
2021/08/03 20:23:23;;;;;;;3.20;1.48;;;;;;;15.83;75.19;99796.91;10494969;28;20040;-72
2021/08/03 20:28:49;;;;;;;3.13;1.60;;;;;;;15.57;77.07;99802.81;10494610;28;20115;-72
2021/08/03 20:33:53;;;;;;;1.70;1.57;;;;;;;15.65;76.66;99805.91;10495622;28;20122;-72
2021/08/03 20:39:00;;;;;;;3.90;2.00;;;;;;;15.55;78.31;99812.66;10494950;28;20058;-72
2021/08/03 20:44:02;;;;;;;4.78;2.03;;;;;;;15.26;78.69;99812.44;10477224;28;20044;-73
2021/08/03 20:49:04;;;;;;;1.58;1.40;;;;;;;15.18;79.19;99808.50;10476091;28;20051;-72
2021/08/03 20:54:06;;;;;;;2.33;1.75;;;;;;;15.14;79.09;99821.91;10494793;28;20056;-72
2021/08/03 20:59:08;;;;;;;2.15;1.58;;;;;;;14.98;80.50;99813.09;10513908;23;20056;-78
2021/08/03 21:04:17;;;;;;;1.80;1.70;;;;;;;15.05;79.17;99818.88;10485801;28;20112;-78
2021/08/03 21:09:21;;;;;;;3.20;1.80;;;;;;;14.93;80.86;99817.78;10504090;28;20040;-78
2021/08/03 21:14:23;;;;;;;1.75;1.50;;;;;;;15.09;79.87;99826.59;10484156;28;20063;-78
2021/08/03 21:19:43;;;;;;;2.97;1.90;;;;;;;14.91;81.26;99819.63;10503798;28;20045;-77
2021/08/03 21:25:03;;;;;;;2.40;1.80;;;;;;;15.04;80.33;99822.47;10501924;28;20048;-78
2021/08/03 21:30:24;;;;;;;1.77;1.67;;;;;;;14.95;80.52;99826.47;10486904;28;20078;-79
2021/08/03 21:35:44;;;;;;;1.95;1.75;;;;;;;14.92;80.42;99825.78;10484603;28;20132;-77
2021/08/03 21:41:04;;;;;;;2.10;1.90;;;;;;;14.75;81.88;99822.25;10501972;28;20393;-79
2021/08/03 21:46:25;;;;;;;1.92;1.60;;;;;;;14.93;80.40;99822.22;10503129;28;20048;-77
2021/08/03 21:51:46;;;;;;;2.10;1.90;;;;;;;14.83;80.80;99829.75;10497977;28;20041;-77
2021/08/03 21:56:48;;;;;;;3.15;1.77;;;;;;;14.68;82.07;99820.84;10496803;28;20506;-76
2021/08/03 22:01:49;;;;;;;2.45;1.60;;;;;;;14.55;82.18;99811.84;10497082;28;20061;-76
2021/08/03 22:06:51;;;;;;;2.92;2.03;;;;;;;14.63;83.06;99826.38;10483683;28;20128;-76
2021/08/03 22:11:53;;;;;;;2.67;2.33;;;;;;;14.52;84.08;99818.16;10505849;28;20040;-77
2021/08/03 22:16:54;;;;;;;2.90;2.47;;;;;;;14.61;83.58;99822.97;10504865;28;20076;-77
2021/08/03 22:21:56;;;;;;;2.35;1.80;;;;;;;14.60;83.51;99812.44;10504017;28;20119;-77
2021/08/03 22:26:58;;;;;;;3.15;1.88;;;;;;;14.88;81.47;99814.53;10507593;28;20070;-78
2021/08/03 22:31:59;;;;;;;3.40;1.95;;;;;;;14.95;81.24;99810.59;10486796;28;20067;-77
2021/08/03 22:37:01;;;;;;;2.80;2.13;;;;;;;14.61;83.04;99808.88;10487244;28;20048;-77
2021/08/03 22:42:04;;;;;;;2.33;2.15;;;;;;;14.66;83.19;99814.78;10503495;28;20085;-78
2021/08/03 22:47:05;;;;;;;2.33;1.90;;;;;;;14.91;80.82;99813.47;10505025;28;20045;-77
2021/08/03 22:52:07;;;;;;;2.90;1.90;;;;;;;14.55;82.27;99807.38;10502365;28;20048;-76
2021/08/03 22:57:08;;;;;;;3.70;2.70;;;;;;;14.44;82.85;99808.88;10483744;28;20052;-75
2021/08/03 23:02:11;;;;;;;3.88;2.17;;;;;;;14.79;81.35;99794.69;10503331;28;20416;-77
2021/08/03 23:07:13;;;;;;;3.65;1.85;;;;;;;14.73;81.52;99795.00;10485240;28;20466;-78
2021/08/03 23:12:15;;;;;;;2.75;1.60;;;;;;;14.68;81.09;99796.19;10505591;28;20036;-78
2021/08/03 23:17:16;;;;;;;2.47;1.90;;;;;;;14.83;79.96;99796.25;10503899;28;20109;-77
2021/08/03 23:22:18;;;;;;;3.15;1.75;;;;;;;14.76;80.18;99804.56;10501294;28;20076;-77
2021/08/03 23:27:20;;;;;;;2.55;1.90;;;;;;;14.59;80.94;99801.00;10502613;28;20128;-77
2021/08/03 23:32:22;;;;;;;1.80;1.70;;;;;;;14.47;81.82;99796.31;10486031;28;20095;-76
2021/08/03 23:37:23;;;;;;;3.97;2.03;;;;;;;14.39;82.75;99785.31;10502495;28;20123;-76
2021/08/03 23:42:26;;;;;;;3.10;2.00;;;;;;;14.51;81.76;99791.75;10501954;28;20040;-77